createdAt,value
2019-05-14T00:00:55.108Z,0.00
2019-05-14T00:01:55.093Z,0.00
2019-05-14T00:02:55.089Z,0.00
2019-05-14T00:03:55.083Z,0.00
2019-05-14T00:04:55.075Z,0.00
2019-05-14T00:05:55.074Z,0.00
2019-05-14T00:06:55.064Z,0.00
2019-05-14T00:07:55.052Z,0.00
2019-05-14T00:08:55.045Z,0.00
2019-05-14T00:09:55.039Z,0.00
2019-05-14T00:10:55.028Z,0.00
2019-05-14T00:11:55.027Z,0.00
2019-05-14T00:12:55.018Z,0.00
2019-05-14T00:13:55.008Z,0.00
2019-05-14T00:14:54.998Z,0.00
2019-05-14T00:15:55.000Z,0.00
2019-05-14T00:16:54.993Z,0.00
2019-05-14T00:17:54.983Z,0.00
2019-05-14T00:18:54.976Z,0.00
2019-05-14T00:20:06.333Z,0.00
2019-05-14T00:20:54.960Z,0.00
2019-05-14T00:21:54.951Z,0.00
2019-05-14T00:22:54.942Z,0.00
2019-05-14T00:23:54.941Z,0.00
2019-05-14T00:24:54.933Z,0.00
2019-05-14T00:25:54.934Z,0.00
2019-05-14T00:26:54.920Z,0.00
2019-05-14T00:27:54.906Z,0.00
2019-05-14T00:28:54.896Z,0.00
2019-05-14T00:29:54.898Z,0.00
2019-05-14T00:30:54.893Z,0.00
2019-05-14T00:31:54.885Z,0.00
2019-05-14T00:32:54.870Z,0.00
2019-05-14T00:33:54.869Z,0.00
2019-05-14T00:34:54.868Z,0.00
2019-05-14T00:35:54.856Z,0.00
2019-05-14T00:36:54.847Z,0.00
2019-05-14T00:37:54.841Z,0.00
2019-05-14T00:38:54.835Z,0.00
2019-05-14T00:39:54.823Z,0.00
2019-05-14T00:40:54.816Z,0.00
2019-05-14T00:41:54.865Z,0.00
2019-05-14T00:42:54.796Z,0.00
2019-05-14T00:43:54.799Z,0.00
2019-05-14T00:44:57.925Z,0.00
2019-05-14T00:45:54.783Z,0.00
2019-05-14T00:46:54.786Z,0.00
2019-05-14T00:47:54.780Z,0.00
2019-05-14T00:48:54.761Z,0.00
2019-05-14T00:49:54.764Z,0.00
2019-05-14T00:50:54.748Z,0.00
2019-05-14T00:51:54.741Z,0.00
2019-05-14T00:52:54.726Z,0.00
2019-05-14T00:53:54.728Z,0.00
2019-05-14T00:54:54.723Z,0.00
2019-05-14T00:55:54.704Z,0.00
2019-05-14T00:56:54.700Z,0.00
2019-05-14T00:57:54.689Z,0.00
2019-05-14T00:58:54.683Z,0.00
2019-05-14T00:59:54.679Z,0.00
2019-05-14T01:00:54.674Z,0.00
2019-05-14T01:01:54.661Z,0.00
2019-05-14T01:02:54.654Z,0.00
2019-05-14T01:03:54.660Z,0.00
2019-05-14T01:04:54.647Z,0.00
2019-05-14T01:05:54.666Z,0.00
2019-05-14T01:06:54.628Z,0.00
2019-05-14T01:07:54.617Z,0.00
2019-05-14T01:08:54.609Z,0.00
2019-05-14T01:09:54.606Z,0.00
2019-05-14T01:10:54.609Z,0.00
2019-05-14T01:11:54.601Z,0.00
2019-05-14T01:12:54.596Z,0.00
2019-05-14T01:13:54.592Z,0.00
2019-05-14T01:15:07.214Z,0.00
2019-05-14T01:15:54.570Z,0.00
2019-05-14T01:16:54.551Z,0.00
2019-05-14T01:17:54.548Z,0.00
2019-05-14T01:18:54.541Z,0.00
2019-05-14T01:19:54.538Z,0.00
2019-05-14T01:20:54.531Z,0.00
2019-05-14T01:21:54.515Z,0.00
2019-05-14T01:22:54.513Z,0.00
2019-05-14T01:23:54.510Z,0.00
2019-05-14T01:24:54.498Z,0.00
2019-05-14T01:25:54.497Z,0.00
2019-05-14T01:26:54.488Z,0.00
2019-05-14T01:27:54.469Z,0.00
2019-05-14T01:28:54.466Z,0.00
2019-05-14T01:29:54.457Z,0.00
2019-05-14T01:30:54.454Z,0.00
2019-05-14T01:31:54.446Z,0.00
2019-05-14T01:32:54.445Z,0.00
2019-05-14T01:33:54.433Z,0.00
2019-05-14T01:34:54.423Z,0.00
2019-05-14T01:35:54.418Z,0.00
2019-05-14T01:36:54.411Z,0.00
2019-05-14T01:37:54.406Z,0.00
2019-05-14T01:38:54.407Z,0.00
2019-05-14T01:39:54.387Z,0.00
2019-05-14T01:40:54.377Z,0.00
2019-05-14T01:41:54.374Z,0.00
2019-05-14T01:42:54.365Z,0.00
2019-05-14T01:43:54.359Z,0.00
2019-05-14T01:44:54.356Z,0.00
2019-05-14T01:45:54.356Z,0.00
2019-05-14T01:46:54.335Z,0.00
2019-05-14T01:47:54.325Z,0.00
2019-05-14T01:48:54.320Z,0.00
2019-05-14T01:49:54.332Z,0.00
2019-05-14T01:50:54.309Z,0.00
2019-05-14T01:51:54.296Z,0.00
2019-05-14T01:52:54.290Z,0.00
2019-05-14T01:53:54.294Z,0.00
2019-05-14T01:54:54.275Z,0.00
2019-05-14T01:55:54.272Z,0.00
2019-05-14T01:56:54.263Z,0.00
2019-05-14T01:57:54.256Z,0.00
2019-05-14T01:58:54.270Z,0.00
2019-05-14T01:59:54.241Z,0.00
2019-05-14T02:00:54.237Z,0.00
2019-05-14T02:01:54.221Z,0.00
2019-05-14T02:02:54.214Z,0.00
2019-05-14T02:03:54.216Z,0.00
2019-05-14T02:04:54.214Z,0.00
2019-05-14T02:05:54.194Z,0.00
2019-05-14T02:06:54.195Z,0.00
2019-05-14T02:07:54.199Z,0.00
2019-05-14T02:08:54.175Z,0.00
2019-05-14T02:09:54.173Z,0.00
2019-05-14T02:10:54.162Z,0.00
2019-05-14T02:11:54.156Z,0.00
2019-05-14T02:12:54.160Z,0.00
2019-05-14T02:13:54.138Z,0.00
2019-05-14T02:14:54.130Z,0.00
2019-05-14T02:15:54.125Z,0.00
2019-05-14T02:16:54.115Z,0.00
2019-05-14T02:17:54.114Z,0.00
2019-05-14T02:18:54.113Z,0.00
2019-05-14T02:19:54.091Z,0.00
2019-05-14T02:20:54.081Z,0.00
2019-05-14T02:21:54.083Z,0.00
2019-05-14T02:22:54.075Z,0.00
2019-05-14T02:23:54.060Z,0.00
2019-05-14T02:24:54.056Z,0.00
2019-05-14T02:25:54.045Z,0.00
2019-05-14T02:26:54.039Z,0.00
2019-05-14T02:27:54.036Z,0.00
2019-05-14T02:28:54.034Z,0.00
2019-05-14T02:29:54.052Z,0.00
2019-05-14T02:30:59.139Z,0.00
2019-05-14T02:31:54.008Z,0.00
2019-05-14T02:32:54.018Z,0.00
2019-05-14T02:33:53.998Z,0.00
2019-05-14T02:34:53.978Z,0.00
2019-05-14T02:35:53.978Z,0.00
2019-05-14T02:36:53.969Z,0.00
2019-05-14T02:37:53.960Z,0.00
2019-05-14T02:38:53.955Z,0.00
2019-05-14T02:39:53.953Z,0.00
2019-05-14T02:40:53.951Z,0.00
2019-05-14T02:41:53.934Z,0.00
2019-05-14T02:42:53.925Z,0.00
2019-05-14T02:43:53.913Z,0.00
2019-05-14T02:44:53.912Z,0.00
2019-05-14T02:46:09.695Z,0.00
2019-05-14T02:46:53.890Z,0.00
2019-05-14T02:47:53.889Z,0.00
2019-05-14T02:48:53.884Z,0.00
2019-05-14T02:49:53.876Z,0.00
2019-05-14T02:50:53.864Z,0.00
2019-05-14T02:51:53.852Z,0.00
2019-05-14T02:52:53.882Z,0.00
2019-05-14T02:53:53.844Z,0.00
2019-05-14T02:54:53.868Z,0.00
2019-05-14T02:55:53.830Z,0.00
2019-05-14T02:56:53.825Z,0.00
2019-05-14T02:57:53.811Z,0.00
2019-05-14T02:58:53.804Z,0.00
2019-05-14T02:59:53.803Z,0.00
2019-05-14T03:00:53.790Z,0.00
2019-05-14T03:01:53.785Z,0.00
2019-05-14T03:02:53.811Z,0.00
2019-05-14T03:03:53.768Z,0.00
2019-05-14T03:04:53.757Z,0.00
2019-05-14T03:05:53.747Z,0.00
2019-05-14T03:06:53.741Z,0.00
2019-05-14T03:07:53.740Z,0.00
2019-05-14T03:08:53.754Z,0.00
2019-05-14T03:09:53.720Z,0.00
2019-05-14T03:10:53.719Z,0.00
2019-05-14T03:11:53.711Z,0.00
2019-05-14T03:12:53.702Z,0.00
2019-05-14T03:13:53.700Z,0.00
2019-05-14T03:14:53.689Z,0.00
2019-05-14T03:15:53.686Z,0.00
2019-05-14T03:16:53.666Z,0.00
2019-05-14T03:17:53.662Z,0.00
2019-05-14T03:18:53.658Z,0.00
2019-05-14T03:19:53.649Z,0.00
2019-05-14T03:20:53.700Z,0.00
2019-05-14T03:21:53.638Z,0.00
2019-05-14T03:23:03.271Z,0.00
2019-05-14T03:23:53.617Z,0.00
2019-05-14T03:24:53.607Z,0.00
2019-05-14T03:25:53.611Z,0.00
2019-05-14T03:26:53.598Z,0.00
2019-05-14T03:27:53.585Z,0.00
2019-05-14T03:28:53.609Z,0.00
2019-05-14T03:29:53.589Z,0.00
2019-05-14T03:30:53.728Z,0.00
2019-05-14T03:31:53.568Z,0.00
2019-05-14T03:32:53.894Z,0.00
2019-05-14T03:33:53.588Z,0.00
2019-05-14T03:34:54.322Z,0.00
2019-05-14T03:36:01.110Z,0.00
2019-05-14T03:36:53.827Z,0.00
2019-05-14T03:37:53.512Z,0.00
2019-05-14T03:38:53.523Z,0.00
2019-05-14T03:39:53.505Z,0.00
2019-05-14T03:40:53.497Z,0.00
2019-05-14T03:41:53.482Z,0.00
2019-05-14T03:42:53.493Z,0.00
2019-05-14T03:43:53.496Z,0.00
2019-05-14T03:44:53.495Z,0.00
2019-05-14T03:45:53.456Z,0.00
2019-05-14T03:46:55.414Z,0.00
2019-05-14T03:47:53.437Z,0.00
2019-05-14T03:48:53.428Z,0.00
2019-05-14T03:49:53.421Z,5.63
2019-05-14T03:50:53.420Z,5.63
2019-05-14T03:51:53.414Z,5.63
2019-05-14T03:52:53.403Z,5.63
2019-05-14T03:54:02.072Z,5.63
2019-05-14T03:54:53.400Z,5.63
2019-05-14T03:55:53.394Z,5.63
2019-05-14T03:56:53.373Z,5.63
2019-05-14T03:57:53.373Z,5.63
2019-05-14T03:58:53.366Z,5.63
2019-05-14T03:59:53.344Z,5.63
2019-05-14T04:00:53.345Z,5.63
2019-05-14T04:01:53.332Z,5.63
2019-05-14T04:02:53.326Z,5.63
2019-05-14T04:03:53.318Z,5.63
2019-05-14T04:04:53.349Z,5.63
2019-05-14T04:05:53.337Z,5.63
2019-05-14T04:06:53.339Z,5.63
2019-05-14T04:07:53.288Z,5.63
2019-05-14T04:08:53.278Z,5.63
2019-05-14T04:09:53.295Z,5.63
2019-05-14T04:10:54.425Z,5.63
2019-05-14T04:11:53.265Z,5.63
2019-05-14T04:12:53.255Z,5.63
2019-05-14T04:13:53.242Z,5.63
2019-05-14T04:14:53.244Z,5.63
2019-05-14T04:15:53.236Z,5.63
2019-05-14T04:17:08.126Z,5.63
2019-05-14T04:17:53.223Z,5.63
2019-05-14T04:18:53.208Z,5.63
2019-05-14T04:19:53.217Z,5.63
2019-05-14T04:20:53.190Z,5.63
2019-05-14T04:21:53.183Z,5.63
2019-05-14T04:22:53.174Z,5.63
2019-05-14T04:23:53.169Z,5.63
2019-05-14T04:24:53.167Z,5.63
2019-05-14T04:25:53.161Z,5.63
2019-05-14T04:27:03.510Z,5.63
2019-05-14T04:27:53.142Z,5.63
2019-05-14T04:28:53.135Z,5.63
2019-05-14T04:29:53.131Z,5.63
2019-05-14T04:30:53.119Z,5.63
2019-05-14T04:31:53.108Z,5.63
2019-05-14T04:32:53.131Z,5.63
2019-05-14T04:33:53.093Z,5.63
2019-05-14T04:34:53.101Z,5.63
2019-05-14T04:35:53.087Z,5.63
2019-05-14T04:36:53.076Z,11.25
2019-05-14T04:37:53.069Z,11.25
2019-05-14T04:38:55.164Z,11.25
2019-05-14T04:39:53.068Z,11.25
2019-05-14T04:40:53.042Z,11.25
2019-05-14T04:41:53.035Z,11.25
2019-05-14T04:42:53.035Z,11.25
2019-05-14T04:43:53.032Z,11.25
2019-05-14T04:44:53.015Z,11.25
2019-05-14T04:45:53.005Z,11.25
2019-05-14T04:46:52.998Z,11.25
2019-05-14T04:47:53.004Z,11.25
2019-05-14T04:48:52.993Z,11.25
2019-05-14T04:49:52.978Z,11.25
2019-05-14T04:50:52.971Z,11.25
2019-05-14T04:51:52.961Z,11.25
2019-05-14T04:52:52.958Z,11.25
2019-05-14T04:53:52.953Z,11.25
2019-05-14T04:54:52.935Z,11.25
2019-05-14T04:55:52.935Z,11.25
2019-05-14T04:56:52.931Z,11.25
2019-05-14T04:57:52.923Z,11.25
2019-05-14T04:58:52.913Z,11.25
2019-05-14T04:59:52.902Z,11.25
2019-05-14T05:00:52.895Z,11.25
2019-05-14T05:01:52.894Z,11.25
2019-05-14T05:02:52.887Z,11.25
2019-05-14T05:03:52.871Z,11.25
2019-05-14T05:04:52.864Z,11.25
2019-05-14T05:05:52.855Z,11.25
2019-05-14T05:06:52.849Z,11.25
2019-05-14T05:07:52.851Z,11.25
2019-05-14T05:08:52.845Z,11.25
2019-05-14T05:09:52.833Z,11.25
2019-05-14T05:10:52.835Z,11.25
2019-05-14T05:11:52.838Z,11.25
2019-05-14T05:12:52.810Z,11.25
2019-05-14T05:13:52.804Z,11.25
2019-05-14T05:14:52.806Z,11.25
2019-05-14T05:15:52.792Z,16.88
2019-05-14T05:16:52.782Z,11.25
2019-05-14T05:17:53.292Z,16.88
2019-05-14T05:18:52.774Z,16.88
2019-05-14T05:19:52.762Z,16.88
2019-05-14T05:20:52.755Z,11.25
2019-05-14T05:21:52.748Z,11.25
2019-05-14T05:22:52.737Z,16.88
2019-05-14T05:23:52.741Z,16.88
2019-05-14T05:24:52.720Z,11.25
2019-05-14T05:25:52.713Z,11.25
2019-05-14T05:26:52.706Z,11.25
2019-05-14T05:27:52.703Z,11.25
2019-05-14T05:29:05.637Z,11.25
2019-05-14T05:29:52.688Z,11.25
2019-05-14T05:30:52.681Z,11.25
2019-05-14T05:31:52.669Z,16.88
2019-05-14T05:32:52.666Z,16.88
2019-05-14T05:33:52.661Z,16.88
2019-05-14T05:34:52.657Z,16.88
2019-05-14T05:35:52.641Z,11.25
2019-05-14T05:36:52.691Z,11.25
2019-05-14T05:37:52.625Z,16.88
2019-05-14T05:38:52.620Z,16.88
2019-05-14T05:39:52.619Z,11.25
2019-05-14T05:40:52.608Z,16.88
2019-05-14T05:41:52.601Z,16.88
2019-05-14T05:42:52.593Z,16.88
2019-05-14T05:43:52.584Z,16.88
2019-05-14T05:44:52.582Z,11.25
2019-05-14T05:45:52.569Z,11.25
2019-05-14T05:46:52.559Z,16.88
2019-05-14T05:47:57.417Z,16.88
2019-05-14T05:48:52.555Z,16.88
2019-05-14T05:49:52.543Z,16.88
2019-05-14T05:50:52.535Z,16.88
2019-05-14T05:51:52.531Z,16.88
2019-05-14T05:52:53.852Z,16.88
2019-05-14T05:53:52.519Z,16.88
2019-05-14T05:54:52.527Z,22.50
2019-05-14T05:55:52.500Z,22.50
2019-05-14T05:56:52.494Z,16.88
2019-05-14T05:57:52.489Z,16.88
2019-05-14T05:58:52.479Z,16.88
2019-05-14T05:59:52.567Z,16.88
2019-05-14T06:00:52.471Z,16.88
2019-05-14T06:01:54.271Z,16.88
2019-05-14T06:02:52.457Z,16.88
2019-05-14T06:03:52.474Z,16.88
2019-05-14T06:04:52.443Z,16.88
2019-05-14T06:05:52.437Z,16.88
2019-05-14T06:06:52.428Z,16.88
2019-05-14T06:07:52.425Z,22.50
2019-05-14T06:08:52.413Z,16.88
2019-05-14T06:09:52.404Z,16.88
2019-05-14T06:10:52.397Z,16.88
2019-05-14T06:11:52.395Z,16.88
2019-05-14T06:12:52.390Z,16.88
2019-05-14T06:13:52.392Z,22.50
2019-05-14T06:14:52.381Z,22.50
2019-05-14T06:15:52.597Z,28.13
2019-05-14T06:16:52.359Z,28.13
2019-05-14T06:17:52.350Z,33.75
2019-05-14T06:18:52.363Z,28.13
2019-05-14T06:19:52.343Z,28.13
2019-05-14T06:20:52.334Z,28.13
2019-05-14T06:21:52.323Z,22.50
2019-05-14T06:22:52.329Z,22.50
2019-05-14T06:23:52.314Z,22.50
2019-05-14T06:24:52.307Z,22.50
2019-05-14T06:25:52.316Z,28.13
2019-05-14T06:26:52.308Z,28.13
2019-05-14T06:27:52.283Z,33.75
2019-05-14T06:28:52.279Z,33.75
2019-05-14T06:29:54.424Z,28.13
2019-05-14T06:30:52.257Z,28.13
2019-05-14T06:31:52.262Z,28.13
2019-05-14T06:32:52.252Z,33.75
2019-05-14T06:33:52.250Z,33.75
2019-05-14T06:34:52.236Z,33.75
2019-05-14T06:35:52.299Z,33.75
2019-05-14T06:36:52.249Z,33.75
2019-05-14T06:37:52.215Z,33.75
2019-05-14T06:38:52.234Z,33.75
2019-05-14T06:39:52.210Z,28.13
2019-05-14T06:40:52.189Z,33.75
2019-05-14T06:41:52.189Z,28.13
2019-05-14T06:42:52.189Z,33.75
2019-05-14T06:43:52.175Z,28.13
2019-05-14T06:44:52.168Z,33.75
2019-05-14T06:45:52.163Z,39.38
2019-05-14T06:46:52.930Z,28.13
2019-05-14T06:47:52.141Z,28.13
2019-05-14T06:48:52.132Z,33.75
2019-05-14T06:49:52.125Z,33.75
2019-05-14T06:50:52.118Z,39.38
2019-05-14T06:51:52.123Z,22.50
2019-05-14T06:52:52.132Z,22.50
2019-05-14T06:53:52.102Z,28.13
2019-05-14T06:54:52.109Z,28.13
2019-05-14T06:55:52.087Z,39.38
2019-05-14T06:56:52.096Z,39.38
2019-05-14T06:57:52.078Z,33.75
2019-05-14T06:58:52.072Z,33.75
2019-05-14T06:59:52.058Z,28.13
2019-05-14T07:00:52.055Z,28.13
2019-05-14T07:01:52.047Z,28.13
2019-05-14T07:02:52.042Z,39.38
2019-05-14T07:03:52.040Z,39.38
2019-05-14T07:04:52.029Z,39.38
2019-05-14T07:05:52.021Z,39.38
2019-05-14T07:06:52.014Z,39.38
2019-05-14T07:07:52.001Z,33.75
2019-05-14T07:08:52.828Z,28.13
2019-05-14T07:09:51.996Z,39.38
2019-05-14T07:10:51.984Z,33.75
2019-05-14T07:11:51.977Z,39.38
2019-05-14T07:12:51.971Z,39.38
2019-05-14T07:13:51.976Z,39.38
2019-05-14T07:14:51.959Z,45.00
2019-05-14T07:15:51.954Z,33.75
2019-05-14T07:16:51.949Z,39.38
2019-05-14T07:17:51.939Z,50.63
2019-05-14T07:18:54.197Z,45.00
2019-05-14T07:19:51.919Z,45.00
2019-05-14T07:20:51.916Z,45.00
2019-05-14T07:21:51.905Z,45.00
2019-05-14T07:22:51.901Z,50.63
2019-05-14T07:23:51.899Z,45.00
2019-05-14T07:24:51.888Z,39.38
2019-05-14T07:25:51.883Z,39.38
2019-05-14T07:26:51.871Z,33.75
2019-05-14T07:27:51.882Z,39.38
2019-05-14T07:28:51.864Z,39.38
2019-05-14T07:29:51.856Z,39.38
2019-05-14T07:30:51.845Z,33.75
2019-05-14T07:31:51.837Z,39.38
2019-05-14T07:32:51.867Z,39.38
2019-05-14T07:33:51.822Z,39.38
2019-05-14T07:34:53.600Z,56.25
2019-05-14T07:35:51.818Z,56.25
2019-05-14T07:36:51.810Z,50.63
2019-05-14T07:37:53.601Z,45.00
2019-05-14T07:38:51.803Z,39.38
2019-05-14T07:39:51.782Z,45.00
2019-05-14T07:40:51.777Z,56.25
2019-05-14T07:41:51.778Z,50.63
2019-05-14T07:42:51.769Z,45.00
2019-05-14T07:43:51.756Z,39.38
2019-05-14T07:44:51.748Z,33.75
2019-05-14T07:45:51.763Z,28.13
2019-05-14T07:46:51.740Z,45.00
2019-05-14T07:47:51.756Z,45.00
2019-05-14T07:49:04.525Z,45.00
2019-05-14T07:49:51.726Z,28.13
2019-05-14T07:50:52.213Z,33.75
2019-05-14T07:51:53.602Z,39.38
2019-05-14T07:52:51.695Z,33.75
2019-05-14T07:53:51.691Z,39.38
2019-05-14T07:54:51.680Z,45.00
2019-05-14T07:55:51.715Z,45.00
2019-05-14T07:56:53.027Z,45.00
2019-05-14T07:57:51.661Z,39.38
2019-05-14T07:58:51.657Z,33.75
2019-05-14T07:59:51.655Z,33.75
2019-05-14T08:00:51.659Z,39.38
2019-05-14T08:01:51.643Z,33.75
2019-05-14T08:02:51.639Z,33.75
2019-05-14T08:03:51.619Z,39.38
2019-05-14T08:04:51.613Z,39.38
2019-05-14T08:05:51.607Z,45.00
2019-05-14T08:06:51.604Z,50.63
2019-05-14T08:07:51.607Z,50.63
2019-05-14T08:08:51.609Z,56.25
2019-05-14T08:09:51.584Z,56.25
2019-05-14T08:10:51.579Z,50.63
2019-05-14T08:11:51.570Z,50.63
2019-05-14T08:12:51.562Z,50.63
2019-05-14T08:13:51.556Z,50.63
2019-05-14T08:15:13.167Z,50.63
2019-05-14T08:15:51.542Z,50.63
2019-05-14T08:16:51.537Z,50.63
2019-05-14T08:17:51.527Z,50.63
2019-05-14T08:18:51.519Z,56.25
2019-05-14T08:19:51.526Z,56.25
2019-05-14T08:20:51.556Z,56.25
2019-05-14T08:21:51.515Z,50.63
2019-05-14T08:22:51.526Z,45.00
2019-05-14T08:23:51.500Z,50.63
2019-05-14T08:24:51.477Z,50.63
2019-05-14T08:25:51.477Z,50.63
2019-05-14T08:26:51.473Z,45.00
2019-05-14T08:27:51.469Z,50.63
2019-05-14T08:28:51.457Z,50.63
2019-05-14T08:29:51.450Z,50.63
2019-05-14T08:30:51.449Z,56.25
2019-05-14T08:31:51.441Z,45.00
2019-05-14T08:32:51.433Z,45.00
2019-05-14T08:33:51.427Z,39.38
2019-05-14T08:34:51.418Z,50.63
2019-05-14T08:35:51.413Z,39.38
2019-05-14T08:36:51.401Z,50.63
2019-05-14T08:38:04.699Z,56.25
2019-05-14T08:38:51.394Z,56.25
2019-05-14T08:39:51.398Z,56.25
2019-05-14T08:40:51.440Z,61.88
2019-05-14T08:41:59.580Z,50.63
2019-05-14T08:42:51.365Z,56.25
2019-05-14T08:43:51.362Z,56.25
2019-05-14T08:44:51.647Z,50.63
2019-05-14T08:45:51.352Z,50.63
2019-05-14T08:46:51.341Z,56.25
2019-05-14T08:47:51.338Z,56.25
2019-05-14T08:48:51.322Z,56.25
2019-05-14T08:49:51.405Z,50.63
2019-05-14T08:50:51.315Z,50.63
2019-05-14T08:51:51.310Z,56.25
2019-05-14T08:52:51.300Z,61.88
2019-05-14T08:53:51.300Z,61.88
2019-05-14T08:55:05.427Z,56.25
2019-05-14T08:55:51.276Z,56.25
2019-05-14T08:56:51.275Z,50.63
2019-05-14T08:57:51.471Z,50.63
2019-05-14T08:58:51.262Z,39.38
2019-05-14T08:59:51.271Z,45.00
2019-05-14T09:00:51.255Z,45.00
2019-05-14T09:02:05.161Z,33.75
2019-05-14T09:02:51.251Z,33.75
2019-05-14T09:03:51.234Z,28.13
2019-05-14T09:04:53.934Z,33.75
2019-05-14T09:05:51.225Z,39.38
2019-05-14T09:06:51.212Z,50.63
2019-05-14T09:07:51.203Z,50.63
2019-05-14T09:08:51.195Z,61.88
2019-05-14T09:09:51.184Z,56.25
2019-05-14T09:10:51.182Z,45.00
2019-05-14T09:11:51.176Z,45.00
2019-05-14T09:12:51.171Z,45.00
2019-05-14T09:13:51.172Z,28.13
2019-05-14T09:14:51.161Z,28.13
2019-05-14T09:15:51.145Z,22.50
2019-05-14T09:16:51.438Z,28.13
2019-05-14T09:17:51.143Z,33.75
2019-05-14T09:18:51.129Z,39.38
2019-05-14T09:20:01.870Z,50.63
2019-05-14T09:20:51.116Z,56.25
2019-05-14T09:21:51.112Z,56.25
2019-05-14T09:22:51.106Z,56.25
2019-05-14T09:23:51.108Z,56.25
2019-05-14T09:24:51.098Z,50.63
2019-05-14T09:25:53.292Z,50.63
2019-05-14T09:26:51.077Z,50.63
2019-05-14T09:27:51.079Z,45.00
2019-05-14T09:28:51.062Z,45.00
2019-05-14T09:29:51.055Z,45.00
2019-05-14T09:30:51.050Z,39.38
2019-05-14T09:31:51.050Z,39.38
2019-05-14T09:32:51.049Z,45.00
2019-05-14T09:33:51.039Z,56.25
2019-05-14T09:34:51.023Z,56.25
2019-05-14T09:36:09.164Z,56.25
2019-05-14T09:36:51.018Z,45.00
2019-05-14T09:37:51.559Z,33.75
2019-05-14T09:38:51.005Z,33.75
2019-05-14T09:39:50.990Z,45.00
2019-05-14T09:41:06.937Z,50.63
2019-05-14T09:41:50.979Z,50.63
2019-05-14T09:42:50.974Z,56.25
2019-05-14T09:43:50.968Z,56.25
2019-05-14T09:44:50.969Z,50.63
2019-05-14T09:45:50.981Z,56.25
2019-05-14T09:46:50.953Z,56.25
2019-05-14T09:47:50.962Z,56.25
2019-05-14T09:48:50.935Z,50.63
2019-05-14T09:49:50.938Z,56.25
2019-05-14T09:50:50.926Z,56.25
2019-05-14T09:51:50.919Z,61.88
2019-05-14T09:52:50.914Z,67.50
2019-05-14T09:53:50.901Z,61.88
2019-05-14T09:54:50.896Z,61.88
2019-05-14T09:55:50.894Z,50.63
2019-05-14T09:56:50.908Z,50.63
2019-05-14T09:57:50.882Z,50.63
2019-05-14T09:58:50.876Z,61.88
2019-05-14T09:59:50.860Z,56.25
2019-05-14T10:00:50.858Z,56.25
2019-05-14T10:01:51.009Z,56.25
2019-05-14T10:02:50.842Z,45.00
2019-05-14T10:03:50.841Z,39.38
2019-05-14T10:04:50.878Z,39.38
2019-05-14T10:05:50.824Z,39.38
2019-05-14T10:06:50.820Z,33.75
2019-05-14T10:07:50.822Z,28.13
2019-05-14T10:08:50.817Z,22.50
2019-05-14T10:09:50.803Z,22.50
2019-05-14T10:10:50.831Z,22.50
2019-05-14T10:11:50.785Z,28.13
2019-05-14T10:12:56.844Z,39.38
2019-05-14T10:13:50.781Z,45.00
2019-05-14T10:14:50.773Z,50.63
2019-05-14T10:15:50.766Z,56.25
2019-05-14T10:16:50.761Z,56.25
2019-05-14T10:17:50.754Z,61.88
2019-05-14T10:18:52.824Z,61.88
2019-05-14T10:19:50.741Z,61.88
2019-05-14T10:20:50.727Z,56.25
2019-05-14T10:21:50.733Z,50.63
2019-05-14T10:22:50.720Z,39.38
2019-05-14T10:23:50.706Z,45.00
2019-05-14T10:24:50.705Z,56.25
2019-05-14T10:25:50.705Z,56.25
2019-05-14T10:26:50.691Z,56.25
2019-05-14T10:27:50.687Z,56.25
2019-05-14T10:28:50.683Z,56.25
2019-05-14T10:29:50.680Z,56.25
2019-05-14T10:30:50.671Z,61.88
2019-05-14T10:31:50.657Z,61.88
2019-05-14T10:32:50.654Z,56.25
2019-05-14T10:33:50.657Z,50.63
2019-05-14T10:34:50.644Z,50.63
2019-05-14T10:35:50.648Z,50.63
2019-05-14T10:36:50.635Z,56.25
2019-05-14T10:37:54.263Z,56.25
2019-05-14T10:38:50.637Z,50.63
2019-05-14T10:39:50.612Z,50.63
2019-05-14T10:40:50.615Z,45.00
2019-05-14T10:41:50.610Z,33.75
2019-05-14T10:42:50.592Z,28.13
2019-05-14T10:43:50.587Z,33.75
2019-05-14T10:44:50.576Z,39.38
2019-05-14T10:45:50.579Z,45.00
2019-05-14T10:46:50.565Z,45.00
2019-05-14T10:47:50.563Z,50.63
2019-05-14T10:48:50.567Z,50.63
2019-05-14T10:49:50.550Z,45.00
2019-05-14T10:51:03.101Z,39.38
2019-05-14T10:51:50.531Z,45.00
2019-05-14T10:52:50.534Z,45.00
2019-05-14T10:53:50.539Z,45.00
2019-05-14T10:54:55.772Z,56.25
2019-05-14T10:55:50.506Z,56.25
2019-05-14T10:56:50.507Z,56.25
2019-05-14T10:57:54.161Z,50.63
2019-05-14T10:58:50.487Z,39.38
2019-05-14T10:59:50.494Z,39.38
2019-05-14T11:00:50.485Z,45.00
2019-05-14T11:01:50.490Z,39.38
2019-05-14T11:02:50.467Z,33.75
2019-05-14T11:03:50.460Z,28.13
2019-05-14T11:04:50.455Z,45.00
2019-05-14T11:05:50.445Z,56.25
2019-05-14T11:06:50.436Z,56.25
2019-05-14T11:07:50.443Z,50.63
2019-05-14T11:08:50.435Z,50.63
2019-05-14T11:09:50.416Z,56.25
2019-05-14T11:10:50.408Z,56.25
2019-05-14T11:11:50.411Z,56.25
2019-05-14T11:12:54.545Z,50.63
2019-05-14T11:13:50.397Z,50.63
2019-05-14T11:14:50.395Z,45.00
2019-05-14T11:15:50.387Z,50.63
2019-05-14T11:16:50.375Z,61.88
2019-05-14T11:17:50.371Z,61.88
2019-05-14T11:18:50.363Z,50.63
2019-05-14T11:19:50.363Z,39.38
2019-05-14T11:20:51.503Z,33.75
2019-05-14T11:21:50.346Z,28.13
2019-05-14T11:22:50.343Z,28.13
2019-05-14T11:23:50.346Z,22.50
2019-05-14T11:24:50.325Z,22.50
2019-05-14T11:25:50.325Z,22.50
2019-05-14T11:26:50.317Z,22.50
2019-05-14T11:27:50.303Z,22.50
2019-05-14T11:28:50.302Z,28.13
2019-05-14T11:29:50.292Z,33.75
2019-05-14T11:30:50.289Z,28.13
2019-05-14T11:31:50.283Z,28.13
2019-05-14T11:32:50.290Z,28.13
2019-05-14T11:33:50.273Z,33.75
2019-05-14T11:34:50.271Z,39.38
2019-05-14T11:35:50.257Z,39.38
2019-05-14T11:36:50.261Z,45.00
2019-05-14T11:37:50.243Z,50.63
2019-05-14T11:38:50.988Z,56.25
2019-05-14T11:39:50.241Z,56.25
2019-05-14T11:40:50.228Z,56.25
2019-05-14T11:41:50.229Z,50.63
2019-05-14T11:42:50.229Z,45.00
2019-05-14T11:43:50.220Z,33.75
2019-05-14T11:44:50.205Z,28.13
2019-05-14T11:45:50.197Z,22.50
2019-05-14T11:46:57.251Z,22.50
2019-05-14T11:47:50.175Z,22.50
2019-05-14T11:48:50.170Z,22.50
2019-05-14T11:49:50.165Z,22.50
2019-05-14T11:50:50.217Z,22.50
2019-05-14T11:52:08.714Z,22.50
2019-05-14T11:52:50.149Z,22.50
2019-05-14T11:53:50.146Z,22.50
2019-05-14T11:54:50.145Z,28.13
2019-05-14T11:55:50.577Z,33.75
2019-05-14T11:56:50.121Z,33.75
2019-05-14T11:57:50.119Z,39.38
2019-05-14T11:58:50.121Z,45.00
2019-05-14T11:59:50.104Z,50.63
2019-05-14T12:00:50.093Z,56.25
2019-05-14T12:01:50.087Z,56.25
2019-05-14T12:02:50.080Z,61.88
2019-05-14T12:03:50.668Z,61.88
2019-05-14T12:04:50.092Z,61.88
2019-05-14T12:05:50.079Z,61.88
2019-05-14T12:06:50.068Z,50.63
2019-05-14T12:07:50.052Z,45.00
2019-05-14T12:08:50.053Z,45.00
2019-05-14T12:09:50.050Z,45.00
2019-05-14T12:10:50.030Z,39.38
2019-05-14T12:11:50.033Z,33.75
2019-05-14T12:12:50.028Z,33.75
2019-05-14T12:13:50.053Z,39.38
2019-05-14T12:14:50.004Z,39.38
2019-05-14T12:15:50.004Z,45.00
2019-05-14T12:16:49.998Z,45.00
2019-05-14T12:17:51.240Z,50.63
2019-05-14T12:18:49.984Z,56.25
2019-05-14T12:19:49.973Z,61.88
2019-05-14T12:20:50.038Z,61.88
2019-05-14T12:22:02.787Z,61.88
2019-05-14T12:22:49.955Z,67.50
2019-05-14T12:23:49.954Z,67.50
2019-05-14T12:24:49.949Z,67.50
2019-05-14T12:25:49.941Z,67.50
2019-05-14T12:26:49.937Z,67.50
2019-05-14T12:27:49.922Z,73.13
2019-05-14T12:28:49.925Z,73.13
2019-05-14T12:29:50.182Z,73.13
2019-05-14T12:30:49.916Z,73.13
2019-05-14T12:31:50.653Z,67.50
2019-05-14T12:32:50.280Z,73.13
2019-05-14T12:33:49.886Z,67.50
2019-05-14T12:34:49.884Z,67.50
2019-05-14T12:35:49.893Z,67.50
2019-05-14T12:36:49.879Z,67.50
2019-05-14T12:37:49.873Z,67.50
2019-05-14T12:38:49.893Z,67.50
2019-05-14T12:39:49.854Z,67.50
2019-05-14T12:40:49.844Z,67.50
2019-05-14T12:41:49.838Z,67.50
2019-05-14T12:42:50.004Z,67.50
2019-05-14T12:43:49.848Z,67.50
2019-05-14T12:44:49.825Z,67.50
2019-05-14T12:45:49.829Z,67.50
2019-05-14T12:46:49.824Z,67.50
2019-05-14T12:47:50.250Z,67.50
2019-05-14T12:48:49.856Z,67.50
2019-05-14T12:49:49.798Z,67.50
2019-05-14T12:50:49.794Z,67.50
2019-05-14T12:51:49.775Z,73.13
2019-05-14T12:52:49.770Z,67.50
2019-05-14T12:53:49.767Z,67.50
2019-05-14T12:54:50.260Z,67.50
2019-05-14T12:55:49.765Z,67.50
2019-05-14T12:56:49.759Z,61.88
2019-05-14T12:57:49.749Z,56.25
2019-05-14T12:58:49.740Z,56.25
2019-05-14T12:59:49.732Z,56.25
2019-05-14T13:00:49.729Z,56.25
2019-05-14T13:01:49.718Z,50.63